Maersk Douglas — DCPL2 — position and weather

sailwx.info

Track history (hours):
 
Tides and Currents Weather Stations Pressure Air Temp Water Temp Dewpoint Dewpoint Depression Visibility Wind Speed Wind Dir Waves Ship Positions

Maersk Douglas

Last reported at 2017-Apr-29 07:30 UTC. Time now 2017-Apr-29 07:37 UTC.
Position N 53°33' E 009°55'.

Length 294.1 m; beam 32.2 m; draft 13.7 m.

Type: Tug. MMSI: 211710650.

Date/timePositionNaut miles runAvg speedWind from/ knotsBaromVisibWave heightAir tempDewpointWater temp
2017-Apr-29 07:30N 53°33' E 009°55'0 0.0
2017-Apr-29 07:00N 53°33' E 009°55'0 0.0
2017-Apr-29 06:30N 53°33' E 009°55'0 0.0
2017-Apr-29 06:00N 53°33' E 009°55'0 0.0
2017-Apr-29 05:30N 53°33' E 009°55'0 0.0
2017-Apr-29 05:00N 53°33' E 009°55'0 0.0
2017-Apr-29 04:30N 53°33' E 009°55'0 0.0
2017-Apr-29 04:00N 53°33' E 009°55'0 0.0
2017-Apr-29 03:31N 53°33' E 009°55'0 0.0
2017-Apr-29 03:01N 53°33' E 009°55'0 0.0
2017-Apr-29 02:31N 53°33' E 009°55'0 0.0
2017-Apr-29 02:01N 53°33' E 009°55'0 0.0
2017-Apr-29 01:31N 53°33' E 009°55'0 0.0
2017-Apr-29 01:01N 53°33' E 009°55'0 0.0
2017-Apr-29 00:30N 53°33' E 009°55'0 0.0
2017-Apr-29 00:00N 53°33' E 009°55'1 1.7
2017-Apr-28 23:30N 53°32' E 009°55'1 1.4
2017-Apr-28 23:00N 53°32' E 009°54'2 4.7
2017-Apr-28 22:30N 53°33' E 009°51'2 3.3
2017-Apr-28 22:01N 53°33' E 009°53'1 2.4
2017-Apr-28 21:30N 53°33' E 009°55'0 0.0
2017-Apr-28 21:00N 53°33' E 009°55'0 0.0
2017-Apr-28 20:31N 53°33' E 009°55'0 0.0
2017-Apr-28 20:00N 53°33' E 009°55'0 0.0
2017-Apr-28 19:31N 53°33' E 009°55'0 0.0
2017-Apr-28 19:01N 53°33' E 009°55'0 0.0
2017-Apr-28 18:31N 53°33' E 009°55'0 0.0
2017-Apr-28 18:00N 53°33' E 009°55'0 0.0
2017-Apr-28 17:31N 53°33' E 009°55'0 0.0
2017-Apr-28 17:01N 53°33' E 009°55'0 0.0
2017-Apr-28 16:30N 53°33' E 009°55'0 0.0
2017-Apr-28 16:00N 53°33' E 009°55'0 0.0
2017-Apr-28 15:31N 53°33' E 009°55'0 0.0
2017-Apr-28 15:01N 53°33' E 009°55'0 0.0
2017-Apr-28 14:00N 53°33' E 009°55'0 0.0
2017-Apr-28 13:31N 53°33' E 009°55'0 0.0
2017-Apr-28 13:01N 53°33' E 009°55'0 0.0
2017-Apr-28 12:31N 53°33' E 009°55'0 0.0
2017-Apr-28 12:01N 53°33' E 009°55'0 0.0
2017-Apr-28 11:31N 53°33' E 009°55'1 1.8
2017-Apr-28 11:01N 53°32' E 009°57'1 1.7
2017-Apr-28 10:31N 53°32' E 009°58'0 0.1
2017-Apr-28 10:01N 53°32' E 009°58'2 3.4
2017-Apr-28 09:31N 53°33' E 009°55'0 0.0
2017-Apr-28 09:01N 53°33' E 009°55'0 0.0
2017-Apr-28 08:31N 53°33' E 009°55'1 1.3
2017-Apr-28 08:01N 53°32' E 009°54'1 1.9
2017-Apr-28 07:30N 53°32' E 009°56'0 0.1
2017-Apr-28 07:00N 53°32' E 009°56'0 0.0
2017-Apr-28 06:31N 53°32' E 009°56'0 0.9
2017-Apr-28 06:01N 53°32' E 009°55'1 1.6
2017-Apr-28 05:31N 53°32' E 009°54'3 5.0
2017-Apr-28 05:01N 53°33' E 009°50'4 8.8
2017-Apr-28 04:30N 53°34' E 009°43'1 2.7
2017-Apr-28 04:00N 53°34' E 009°45'4 7.9
2017-Apr-28 03:31N 53°33' E 009°51'2 4.7
2017-Apr-28 03:01N 53°33' E 009°55'0 0.0
2017-Apr-28 02:31N 53°33' E 009°55'0 0.0
2017-Apr-28 02:01N 53°33' E 009°55'0 0.0
2017-Apr-28 01:31N 53°33' E 009°55'0 0.0
2017-Apr-28 01:01N 53°33' E 009°55'0 0.0
2017-Apr-28 00:30N 53°33' E 009°55'0 0.0
2017-Apr-28 00:00N 53°33' E 009°55'0 0.0
2017-Apr-27 23:31N 53°33' E 009°55'0 0.0
2017-Apr-27 23:00N 53°33' E 009°55'0 0.0
2017-Apr-27 22:31N 53°33' E 009°55'0 0.0
2017-Apr-27 22:01N 53°33' E 009°55'0 0.0
2017-Apr-27 21:31N 53°33' E 009°55'1 2.7
2017-Apr-27 21:01N 53°31' E 009°56'1 2.5
2017-Apr-27 20:30N 53°30' E 009°56'0 0.1
2017-Apr-27 20:00N 53°30' E 009°56'2 4.3
2017-Apr-27 19:30N 53°32' E 009°56'3 6.8
2017-Apr-27 19:01N 53°33' E 009°50'4 7.2
2017-Apr-27 18:31N 53°34' E 009°45'1 1.4
2017-Apr-27 18:01N 53°34' E 009°43'0 0.0
2017-Apr-27 17:31N 53°34' E 009°43'0 0.0
2017-Apr-27 17:01N 53°34' E 009°43'3 6.6
2017-Apr-27 16:31N 53°33' E 009°49'4 7.6
2017-Apr-27 16:00N 53°33' E 009°55'0 0.0
2017-Apr-27 15:30N 53°33' E 009°55'0 0.0
2017-Apr-27 15:01N 53°33' E 009°55'0 0.0
2017-Apr-27 14:01N 53°33' E 009°55'0 0.0
2017-Apr-27 13:30N 53°33' E 009°55'0 0.0
2017-Apr-27 13:01N 53°33' E 009°55'0 0.0
2017-Apr-27 12:31N 53°33' E 009°55'0 0.0
2017-Apr-27 12:00N 53°33' E 009°55'0 0.0
2017-Apr-27 11:31N 53°33' E 009°55'0 0.2
2017-Apr-27 11:00N 53°33' E 009°55'0 0.0
2017-Apr-27 10:31N 53°33' E 009°55'0 0.0
2017-Apr-27 10:01N 53°33' E 009°55'0 0.0
2017-Apr-27 09:31N 53°33' E 009°55'0 0.0
2017-Apr-27 09:00N 53°33' E 009°55'0 0.0
2017-Apr-27 08:31N 53°33' E 009°55'0 0.0
2017-Apr-27 08:01N 53°33' E 009°55'0 0.0
2017-Apr-27 07:30N 53°33' E 009°55'0 0.0
2017-Apr-27 07:00N 53°33' E 009°55'0 0.0
2017-Apr-27 06:31N 53°33' E 009°55'0 0.0
2017-Apr-27 06:00N 53°33' E 009°55'0 0.0
2017-Apr-27 05:30N 53°33' E 009°55'0 0.0
2017-Apr-27 05:01N 53°33' E 009°55'0 0.0
2017-Apr-27 04:30N 53°33' E 009°55'0 0.0
2017-Apr-27 04:00N 53°33' E 009°55'0 0.0
2017-Apr-27 03:31N 53°33' E 009°55'0 0.0
2017-Apr-27 03:01N 53°33' E 009°55'0 0.0
2017-Apr-27 02:30N 53°33' E 009°55'0 0.0
2017-Apr-27 02:01N 53°33' E 009°55'0 0.0
2017-Apr-27 01:31N 53°33' E 009°55'0 0.0
2017-Apr-27 01:01N 53°33' E 009°55'0 0.0
2017-Apr-27 00:31N 53°33' E 009°55'0 0.0
2017-Apr-27 00:00N 53°33' E 009°55'0 0.0
2017-Apr-26 23:31N 53°33' E 009°55'0 0.0
2017-Apr-26 23:01N 53°33' E 009°55'0 0.0
2017-Apr-26 22:30N 53°33' E 009°55'0 0.0
2017-Apr-26 22:00N 53°33' E 009°55'0 0.2
2017-Apr-26 21:31N 53°33' E 009°55'1 2.9
2017-Apr-26 21:00N 53°31' E 009°56'1 1.9
2017-Apr-26 20:31N 53°30' E 009°57'3 5.1
2017-Apr-26 20:01N 53°32' E 009°54'0 0.2
2017-Apr-26 19:31N 53°33' E 009°54'1 0.2
2017-Apr-26 16:14N 53°33' E 009°55'0 0.0
2017-Apr-26 16:01N 53°33' E 009°55'0 0.0
2017-Apr-26 15:30N 53°33' E 009°55'0 0.0
2017-Apr-26 15:01N 53°33' E 009°55'0 0.0
2017-Apr-26 14:30N 53°33' E 009°55'0 0.0
2017-Apr-26 13:31N 53°33' E 009°55'0 0.0
2017-Apr-26 13:00N 53°33' E 009°55'0 0.0
2017-Apr-26 12:30N 53°33' E 009°55'0 0.0
2017-Apr-26 12:00N 53°33' E 009°55'0 0.0
2017-Apr-26 11:30N 53°33' E 009°55'0 0.0
2017-Apr-26 11:00N 53°33' E 009°55'0 0.0
2017-Apr-26 10:30N 53°33' E 009°55'0 0.0
2017-Apr-26 10:01N 53°33' E 009°55'0 0.0
2017-Apr-26 09:30N 53°33' E 009°55'0 0.0
2017-Apr-26 09:00N 53°33' E 009°55'0 0.0
2017-Apr-26 08:31N 53°33' E 009°55'0 0.0
2017-Apr-26 08:00N 53°33' E 009°55'0 0.0
2017-Apr-26 07:31N 53°33' E 009°55'0 0.0
2017-Apr-26 07:01N 53°33' E 009°55'0 0.0
2017-Apr-26 06:30N 53°33' E 009°55'0 0.0
2017-Apr-26 06:01N 53°33' E 009°55'0 0.0
2017-Apr-26 05:31N 53°33' E 009°55'0 0.0
2017-Apr-26 05:00N 53°33' E 009°55'0 0.0
2017-Apr-26 04:31N 53°33' E 009°55'0 0.0
2017-Apr-26 04:00N 53°33' E 009°55'0 0.0
2017-Apr-26 03:30N 53°33' E 009°55'0 0.0
2017-Apr-26 03:00N 53°33' E 009°55'0 0.0
2017-Apr-26 02:30N 53°33' E 009°55'0 0.0
2017-Apr-26 02:00N 53°33' E 009°55'0 0.0
2017-Apr-26 01:31N 53°33' E 009°55'0 0.0
2017-Apr-26 01:01N 53°33' E 009°55'0 0.0
2017-Apr-26 00:30N 53°33' E 009°55'0 0.0
2017-Apr-26 00:00N 53°33' E 009°55'0 0.0
2017-Apr-25 23:31N 53°33' E 009°55'0 0.0
2017-Apr-25 23:00N 53°33' E 009°55'0 0.0
2017-Apr-25 22:30N 53°33' E 009°55'0 0.0
2017-Apr-25 22:00N 53°33' E 009°55'0 0.0
2017-Apr-25 21:30N 53°33' E 009°55'0 0.0
2017-Apr-25 21:00N 53°33' E 009°55'0 0.0
2017-Apr-25 20:31N 53°33' E 009°55'0 0.0
2017-Apr-25 20:00N 53°33' E 009°55'0 0.0
2017-Apr-25 19:30N 53°33' E 009°55'0 0.0
2017-Apr-25 19:00N 53°33' E 009°55'0 0.0
2017-Apr-25 18:30N 53°33' E 009°55'0 0.0
2017-Apr-25 18:00N 53°33' E 009°55'0 0.0
2017-Apr-25 17:30N 53°33' E 009°55'0 0.0
2017-Apr-25 17:00N 53°33' E 009°55'0 0.0
2017-Apr-25 16:31N 53°33' E 009°55'0 0.0
2017-Apr-25 16:01N 53°33' E 009°55'0 0.0
2017-Apr-25 15:31N 53°33' E 009°55'0 0.0
2017-Apr-25 15:00N 53°33' E 009°55'0 0.0
2017-Apr-25 14:00N 53°33' E 009°55'0 0.0
2017-Apr-25 13:30N 53°33' E 009°55'0 0.0
2017-Apr-25 13:01N 53°33' E 009°55'0 0.0
2017-Apr-25 12:31N 53°33' E 009°55'1 2.7
2017-Apr-25 12:01N 53°33' E 009°58'1 1.7
2017-Apr-25 11:30N 53°32' E 009°59'3 5.5
2017-Apr-25 11:00N 53°32' E 009°54'0 0.1
2017-Apr-25 10:30N 53°32' E 009°54'1 1.1
2017-Apr-25 10:01N 53°33' E 009°55'0 0.0
2017-Apr-25 09:31N 53°33' E 009°55'0 0.0
2017-Apr-25 09:00N 53°33' E 009°55'0 0.0
2017-Apr-25 08:31N 53°33' E 009°55'0 0.0
2017-Apr-25 08:01N 53°33' E 009°55'0 0.0
2017-Apr-25 07:30N 53°33' E 009°55'0 0.0
2017-Apr-25 07:01N 53°33' E 009°55'0 0.2
2017-Apr-25 06:31N 53°33' E 009°55'0 0.0
2017-Apr-25 06:00N 53°33' E 009°55'0 0.0
2017-Apr-25 05:30N 53°33' E 009°55'0 0.0
2017-Apr-25 05:01N 53°33' E 009°55'0 0.0
2017-Apr-25 04:31N 53°33' E 009°55'0 0.0
2017-Apr-25 04:01N 53°33' E 009°55'0 0.0
2017-Apr-25 03:30N 53°33' E 009°55'0 0.0
2017-Apr-25 03:00N 53°33' E 009°55'0 0.0
2017-Apr-25 02:31N 53°33' E 009°55'0 0.0
2017-Apr-25 02:00N 53°33' E 009°55'0 0.0
2017-Apr-25 01:31N 53°33' E 009°55'0 0.0
2017-Apr-25 01:01N 53°33' E 009°55'0 0.0
2017-Apr-25 00:31N 53°33' E 009°55'0 0.0
2017-Apr-25 00:00N 53°33' E 009°55'0 0.0
2017-Apr-24 23:30N 53°33' E 009°55'0 0.0
2017-Apr-24 23:00N 53°33' E 009°55'0 0.0
2017-Apr-24 22:30N 53°33' E 009°55'0 0.0
2017-Apr-24 22:00N 53°33' E 009°55'0 0.0
2017-Apr-24 21:30N 53°33' E 009°55'0 0.0
2017-Apr-24 21:00N 53°33' E 009°55'0 0.0
2017-Apr-24 20:30N 53°33' E 009°55'0 0.0
2017-Apr-24 20:01N 53°33' E 009°55'0 0.0
2017-Apr-24 19:30N 53°33' E 009°55'0 0.0
2017-Apr-24 19:01N 53°33' E 009°55'0 0.0
2017-Apr-24 18:31N 53°33' E 009°55'0 0.0
2017-Apr-24 18:00N 53°33' E 009°55'0 0.0
2017-Apr-24 17:30N 53°33' E 009°55'0 0.0
2017-Apr-24 17:00N 53°33' E 009°55'0 0.0
2017-Apr-24 16:30N 53°33' E 009°55'0 0.0
2017-Apr-24 16:01N 53°33' E 009°55'3 5.4
2017-Apr-24 15:30N 53°33' E 009°51'5 9.6
2017-Apr-24 15:01N 53°34' E 009°43'5 9.6
2017-Apr-24 14:30N 53°36' E 009°36'5 4.5
2017-Apr-24 13:30N 53°39' E 009°31'1 2.2
2017-Apr-24 13:01N 53°40' E 009°30'1 2.4
2017-Apr-24 12:30N 53°39' E 009°31'0 0.3
2017-Apr-24 12:00N 53°39' E 009°31'510.3
2017-Apr-24 11:30N 53°35' E 009°37'5 9.9
2017-Apr-24 11:00N 53°34' E 009°45'4 8.1
2017-Apr-24 10:30N 53°33' E 009°51'2 5.0
2017-Apr-24 10:00N 53°33' E 009°55'0 0.0
2017-Apr-24 09:30N 53°33' E 009°55'0 0.0
2017-Apr-24 09:01N 53°33' E 009°55'0 0.0
2017-Apr-24 08:31N 53°33' E 009°55'0 0.0
2017-Apr-24 08:01N 53°33' E 009°55'0 0.0
2017-Apr-24 07:31N 53°33' E 009°55'0 0.0
2017-Apr-24 07:01N 53°33' E 009°55'0 0.0
2017-Apr-24 06:31N 53°33' E 009°55'0 0.0
2017-Apr-24 06:00N 53°33' E 009°55'0 0.0
2017-Apr-24 05:30N 53°33' E 009°55'0 0.0
2017-Apr-24 05:01N 53°33' E 009°55'0 0.0
2017-Apr-24 04:31N 53°33' E 009°55'0 0.0
2017-Apr-24 04:00N 53°33' E 009°55'0 0.0
2017-Apr-24 03:30N 53°33' E 009°55'0 0.0
2017-Apr-24 03:00N 53°33' E 009°55'0 0.0
2017-Apr-24 02:30N 53°33' E 009°55'0 0.0
2017-Apr-24 02:01N 53°33' E 009°55'0 0.0
2017-Apr-24 01:31N 53°33' E 009°55'0 0.0
2017-Apr-24 01:00N 53°33' E 009°55'0 0.0
2017-Apr-24 00:30N 53°33' E 009°55'0 0.0
2017-Apr-24 00:00N 53°33' E 009°55'0 0.0
2017-Apr-23 23:31N 53°33' E 009°55'0 0.0
2017-Apr-23 23:00N 53°33' E 009°55'0 0.0
2017-Apr-23 22:30N 53°33' E 009°55'0 0.0
2017-Apr-23 22:00N 53°33' E 009°55'0 0.0
2017-Apr-23 21:30N 53°33' E 009°55'0 0.0
2017-Apr-23 21:01N 53°33' E 009°55'0 0.0
2017-Apr-23 20:30N 53°33' E 009°55'0 0.0
2017-Apr-23 20:01N 53°33' E 009°55'0 0.0
2017-Apr-23 19:31N 53°33' E 009°55'0 0.0
2017-Apr-23 19:00N 53°33' E 009°55'0 0.0
2017-Apr-23 18:30N 53°33' E 009°55'0 0.0
2017-Apr-23 18:00N 53°33' E 009°55'0 0.0
2017-Apr-23 17:31N 53°33' E 009°55'0 0.0
2017-Apr-23 17:00N 53°33' E 009°55'0 0.0
2017-Apr-23 16:30N 53°33' E 009°55'0 0.0
2017-Apr-23 16:01N 53°33' E 009°55'0 0.0
2017-Apr-23 15:31N 53°33' E 009°55'0 0.0
2017-Apr-23 15:01N 53°33' E 009°55'0 0.0
2017-Apr-23 14:00N 53°33' E 009°55'0 0.0
2017-Apr-23 13:30N 53°33' E 009°55'1 2.3
2017-Apr-23 13:01N 53°33' E 009°57'2 3.1
2017-Apr-23 12:30N 53°32' E 009°60'2 4.2
2017-Apr-23 12:01N 53°32' E 009°56'1 1.0
2017-Apr-23 11:31N 53°33' E 009°55'0 0.0
2017-Apr-23 11:00N 53°33' E 009°55'0 0.0
2017-Apr-23 10:30N 53°33' E 009°55'0 0.0
2017-Apr-23 10:01N 53°33' E 009°55'0 0.0
2017-Apr-23 09:30N 53°33' E 009°55'0 0.0
2017-Apr-23 09:00N 53°33' E 009°55'0 0.0
2017-Apr-23 08:31N 53°33' E 009°55'0 0.0
2017-Apr-23 08:00N 53°33' E 009°55'0 0.0
2017-Apr-23 07:30N 53°33' E 009°55'0 0.0
2017-Apr-23 07:00N 53°33' E 009°55'0 0.0
2017-Apr-23 06:30N 53°33' E 009°55'0 0.0
2017-Apr-23 06:00N 53°33' E 009°55'0 0.0
2017-Apr-23 05:30N 53°33' E 009°55'0 0.0
2017-Apr-23 05:00N 53°33' E 009°55'1 1.8
2017-Apr-23 04:31N 53°32' E 009°54'1 1.8
2017-Apr-23 04:00N 53°32' E 009°55'1 1.7
2017-Apr-23 03:30N 53°33' E 009°55'0 0.0
2017-Apr-23 03:00N 53°33' E 009°55'0 0.0
2017-Apr-23 02:30N 53°33' E 009°55'0 0.0
2017-Apr-23 02:00N 53°33' E 009°55'0 1.0
2017-Apr-23 01:30N 53°32' E 009°55'0 1.0
2017-Apr-23 01:00N 53°33' E 009°55'0 0.0
2017-Apr-23 00:30N 53°33' E 009°55'0 0.0
2017-Apr-23 00:00N 53°33' E 009°55'0 0.0
2017-Apr-22 23:30N 53°33' E 009°55'0 0.0
2017-Apr-22 23:00N 53°33' E 009°55'0 0.0
2017-Apr-22 22:30N 53°33' E 009°55'0 0.0
2017-Apr-22 22:00N 53°33' E 009°55'0 0.0
2017-Apr-22 21:30N 53°33' E 009°55'0 0.0
2017-Apr-22 21:00N 53°33' E 009°55'0 0.0
2017-Apr-22 20:30N 53°33' E 009°55'0 0.0
2017-Apr-22 20:00N 53°33' E 009°55'0 0.0
2017-Apr-22 19:30N 53°33' E 009°55'0 0.0
2017-Apr-22 19:00N 53°33' E 009°55'0 0.0
2017-Apr-22 18:30N 53°33' E 009°55'0 0.0
2017-Apr-22 18:00N 53°33' E 009°55'0 0.0
2017-Apr-22 17:30N 53°33' E 009°55'0 0.0
2017-Apr-22 17:00N 53°33' E 009°55'0 0.0
2017-Apr-22 16:30N 53°33' E 009°55'0 0.0
2017-Apr-22 16:00N 53°33' E 009°55'0 0.0
2017-Apr-22 15:30N 53°33' E 009°55'0 0.0
2017-Apr-22 15:00N 53°33' E 009°55'0 0.0
2017-Apr-22 14:30N 53°33' E 009°55'1 1.3
2017-Apr-22 13:30N 53°32' E 009°53'1 2.4
2017-Apr-22 13:00N 53°32' E 009°55'0 0.1
2017-Apr-22 12:30N 53°32' E 009°55'0 0.3
2017-Apr-22 12:00N 53°32' E 009°55'0 0.0
2017-Apr-22 11:30N 53°32' E 009°55'0 0.5
2017-Apr-22 11:01N 53°32' E 009°55'1 2.6
2017-Apr-22 10:31N 53°32' E 009°53'0 0.7
2017-Apr-22 10:00N 53°33' E 009°53'1 2.9
2017-Apr-22 09:30N 53°33' E 009°55'0 0.0
2017-Apr-22 09:00N 53°33' E 009°55'0 0.0
2017-Apr-22 08:30N 53°33' E 009°55'0 0.0
2017-Apr-22 08:00N 53°33' E 009°55'0 0.0
2017-Apr-22 07:30N 53°33' E 009°55'0 0.0
2017-Apr-22 07:00N 53°33' E 009°55'0 0.0
2017-Apr-22 06:30N 53°33' E 009°55'0 0.0
2017-Apr-22 06:00N 53°33' E 009°55'0 0.0
2017-Apr-22 05:30N 53°33' E 009°55'0 0.0
2017-Apr-22 05:00N 53°33' E 009°55'0 0.0
2017-Apr-22 04:30N 53°33' E 009°55'0 0.0
2017-Apr-22 04:00N 53°33' E 009°55'1 1.3
2017-Apr-22 03:30N 53°32' E 009°54'0 0.0
2017-Apr-22 03:00N 53°32' E 009°54'1 1.2
2017-Apr-22 02:30N 53°33' E 009°55'0 0.0
2017-Apr-22 02:01N 53°33' E 009°55'0 0.0
2017-Apr-22 01:30N 53°33' E 009°55'0 0.0
2017-Apr-22 01:00N 53°33' E 009°55'0 0.0
2017-Apr-22 00:30N 53°33' E 009°55'0 0.0
2017-Apr-22 00:00N 53°33' E 009°55'0 0.0
2017-Apr-21 23:30N 53°33' E 009°55'0 0.0
2017-Apr-21 23:00N 53°33' E 009°55'0 0.0
2017-Apr-21 22:30N 53°33' E 009°55'0 0.0
2017-Apr-21 22:00N 53°33' E 009°55'0 0.0
2017-Apr-21 21:30N 53°33' E 009°55'0 0.0
2017-Apr-21 21:00N 53°33' E 009°55'0 0.0
2017-Apr-21 20:30N 53°33' E 009°55'0 0.0
2017-Apr-21 20:00N 53°33' E 009°55'0 0.0
2017-Apr-21 19:30N 53°33' E 009°55'0 0.0
2017-Apr-21 19:00N 53°33' E 009°55'0 0.0
2017-Apr-21 18:30N 53°33' E 009°55'0 0.0
2017-Apr-21 18:00N 53°33' E 009°55'0 0.6
2017-Apr-21 17:30N 53°32' E 009°55'1 2.2
2017-Apr-21 17:01N 53°32' E 009°57'0 0.4
2017-Apr-21 16:31N 53°32' E 009°57'1 2.0
2017-Apr-21 16:00N 53°33' E 009°55'0 0.0
2017-Apr-21 15:30N 53°33' E 009°55'0 0.0
2017-Apr-21 15:00N 53°33' E 009°55'0 0.0
2017-Apr-21 14:30N 53°33' E 009°55'0 0.0
2017-Apr-21 13:30N 53°33' E 009°55'0 0.0
2017-Apr-21 13:00N 53°33' E 009°55'1 2.0
2017-Apr-21 12:30N 53°32' E 009°57'1 2.1
2017-Apr-21 12:00N 53°32' E 009°55'0 0.4
2017-Apr-21 11:30N 53°33' E 009°55'0 0.0
2017-Apr-21 11:00N 53°33' E 009°55'0 0.0
2017-Apr-21 10:30N 53°33' E 009°55'0 0.0
2017-Apr-21 10:00N 53°33' E 009°55'0 0.0
2017-Apr-21 09:30N 53°33' E 009°55'0 0.0
2017-Apr-21 09:00N 53°33' E 009°55'0 0.0
2017-Apr-21 08:30N 53°33' E 009°55'0 0.0
2017-Apr-21 08:00N 53°33' E 009°55'0 0.0
2017-Apr-21 07:30N 53°33' E 009°55'0 0.0
2017-Apr-21 07:00N 53°33' E 009°55'0 0.0
2017-Apr-21 06:30N 53°33' E 009°55'0 0.0
2017-Apr-21 06:00N 53°33' E 009°55'0 0.0
2017-Apr-21 05:30N 53°33' E 009°55'0 0.0
2017-Apr-21 05:00N 53°33' E 009°55'0 0.0
2017-Apr-21 04:30N 53°33' E 009°55'0 0.0
2017-Apr-21 04:00N 53°33' E 009°55'0 0.5
2017-Apr-21 03:30N 53°32' E 009°55'0 0.4
2017-Apr-21 03:00N 53°33' E 009°55'0 0.4
2017-Apr-21 02:30N 53°33' E 009°55'0 0.0
2017-Apr-21 02:00N 53°33' E 009°55'0 0.0
2017-Apr-21 01:30N 53°33' E 009°55'0 0.0
2017-Apr-21 01:00N 53°33' E 009°55'0 0.0
2017-Apr-21 00:30N 53°33' E 009°55'0 0.0
2017-Apr-21 00:00N 53°33' E 009°55'0 0.0
2017-Apr-20 23:30N 53°33' E 009°55'0 0.0
2017-Apr-20 23:00N 53°33' E 009°55'0 0.0
2017-Apr-20 22:30N 53°33' E 009°55'3 6.4
2017-Apr-20 22:00N 53°30' E 009°57'0 0.6
2017-Apr-20 21:30N 53°29' E 009°57'1 1.6
2017-Apr-20 21:00N 53°30' E 009°57'1 2.1
2017-Apr-20 20:30N 53°31' E 009°56'2 3.3
2017-Apr-20 20:00N 53°33' E 009°55'0 0.0
2017-Apr-20 19:30N 53°33' E 009°55'0 0.0
2017-Apr-20 19:00N 53°33' E 009°55'0 0.0
2017-Apr-20 17:52N 53°33' E 009°55'0 0.0
2017-Apr-20 17:30N 53°33' E 009°55'0 0.0
2017-Apr-20 17:00N 53°33' E 009°55'0 0.0
2017-Apr-20 16:30N 53°33' E 009°55'0 0.0
2017-Apr-20 16:00N 53°33' E 009°55'0 0.0
2017-Apr-20 15:30N 53°33' E 009°55'0 0.0
2017-Apr-20 15:00N 53°33' E 009°55'0 0.0
2017-Apr-20 14:00N 53°33' E 009°55'0 0.0
2017-Apr-20 13:30N 53°33' E 009°55'0 0.0
2017-Apr-20 13:00N 53°33' E 009°55'0 0.0
2017-Apr-20 12:30N 53°33' E 009°55'0 0.0
2017-Apr-20 12:01N 53°33' E 009°55'0 0.0
2017-Apr-20 11:30N 53°33' E 009°55'0 0.0
2017-Apr-20 11:00N 53°33' E 009°55'0 0.0
2017-Apr-20 10:30N 53°33' E 009°55'0 0.0
2017-Apr-20 10:00N 53°33' E 009°55'0 0.0
2017-Apr-20 09:30N 53°33' E 009°55'2 3.3
2017-Apr-20 09:00N 53°31' E 009°56'1 1.1
2017-Apr-20 08:30N 53°32' E 009°56'1 1.2
2017-Apr-20 08:00N 53°32' E 009°56'3 5.1
2017-Apr-20 07:30N 53°33' E 009°52'2 4.0
2017-Apr-20 07:00N 53°33' E 009°55'0 0.0
2017-Apr-20 06:30N 53°33' E 009°55'0 0.0
2017-Apr-20 06:00N 53°33' E 009°55'0 0.0
2017-Apr-20 05:30N 53°33' E 009°55'0 0.0
2017-Apr-20 05:00N 53°33' E 009°55'0 0.0
2017-Apr-20 04:30N 53°33' E 009°55'0 0.0
2017-Apr-20 04:00N 53°33' E 009°55'0 0.0
2017-Apr-20 03:30N 53°33' E 009°55'0 0.0
2017-Apr-20 03:00N 53°33' E 009°55'0 0.0
2017-Apr-20 02:30N 53°33' E 009°55'0 0.0
2017-Apr-20 02:00N 53°33' E 009°55'0 0.0
2017-Apr-20 01:30N 53°33' E 009°55'0 0.0
2017-Apr-20 01:00N 53°33' E 009°55'0 0.0
2017-Apr-20 00:31N 53°33' E 009°55'0 0.0
2017-Apr-20 00:00N 53°33' E 009°55'0 0.0
2017-Apr-19 23:31N 53°33' E 009°55'0 0.0
2017-Apr-19 23:00N 53°33' E 009°55'0 0.0
2017-Apr-19 22:31N 53°33' E 009°55'1 2.4
2017-Apr-19 22:00N 53°32' E 009°56'1 3.0
2017-Apr-19 21:30N 53°30' E 009°58'0 1.0
2017-Apr-19 21:00N 53°31' E 009°57'2 4.4
2017-Apr-19 20:30N 53°32' E 009°55'0 0.6
2017-Apr-19 20:00N 53°33' E 009°55'0 0.0
2017-Apr-19 19:30N 53°33' E 009°55'0 0.0
2017-Apr-19 19:00N 53°33' E 009°55'0 0.0
2017-Apr-19 18:30N 53°33' E 009°55'0 0.0
2017-Apr-19 18:00N 53°33' E 009°55'0 0.0
2017-Apr-19 17:30N 53°33' E 009°55'0 0.0
2017-Apr-19 17:00N 53°33' E 009°55'0 0.0
2017-Apr-19 16:30N 53°33' E 009°55'0 0.0
2017-Apr-19 16:00N 53°33' E 009°55'0 0.0
2017-Apr-19 15:30N 53°33' E 009°55'0 0.0
2017-Apr-19 15:00N 53°33' E 009°55'0 0.0
2017-Apr-19 14:30N 53°33' E 009°55'0 0.0
2017-Apr-19 13:30N 53°33' E 009°55'0 0.0
2017-Apr-19 13:00N 53°33' E 009°55'0 0.0
2017-Apr-19 12:30N 53°33' E 009°55'0 0.0
2017-Apr-19 12:00N 53°33' E 009°55'0 0.0
2017-Apr-19 11:30N 53°33' E 009°55'1 2.0
2017-Apr-19 11:00N 53°32' E 009°54'1 2.4
2017-Apr-19 10:30N 53°32' E 009°55'0 0.1
2017-Apr-19 10:00N 53°32' E 009°55'0 0.0
2017-Apr-19 09:30N 53°32' E 009°55'0 0.0
2017-Apr-19 09:00N 53°32' E 009°55'0 0.6
2017-Apr-19 08:31N 53°32' E 009°55'1 1.6
2017-Apr-19 08:01N 53°33' E 009°54'2 4.2
2017-Apr-19 07:30N 53°33' E 009°51'  
Track history (hours):
 
Tides and Currents Weather Stations Pressure Air Temp Water Temp Dewpoint Dewpoint Depression Visibility Wind Speed Wind Dir Waves Ship Positions

Maersk Douglas

Last reported at 2017-Apr-29 07:30 UTC. Time now 2017-Apr-29 07:37 UTC.
Position N 53°33' E 009°55'.

Length 294.1 m; beam 32.2 m; draft 13.7 m.

Type: Tug. MMSI: 211710650.

Date/timePositionNaut miles runAvg speedWind from/ knotsBaromVisibWave heightAir tempDewpointWater temp
2017-Apr-29 07:30N 53°33' E 009°55'0 0.0
2017-Apr-29 07:00N 53°33' E 009°55'0 0.0
2017-Apr-29 06:30N 53°33' E 009°55'0 0.0
2017-Apr-29 06:00N 53°33' E 009°55'0 0.0
2017-Apr-29 05:30N 53°33' E 009°55'0 0.0
2017-Apr-29 05:00N 53°33' E 009°55'0 0.0
2017-Apr-29 04:30N 53°33' E 009°55'0 0.0
2017-Apr-29 04:00N 53°33' E 009°55'0 0.0
2017-Apr-29 03:31N 53°33' E 009°55'0 0.0
2017-Apr-29 03:01N 53°33' E 009°55'0 0.0
2017-Apr-29 02:31N 53°33' E 009°55'0 0.0
2017-Apr-29 02:01N 53°33' E 009°55'0 0.0
2017-Apr-29 01:31N 53°33' E 009°55'0 0.0
2017-Apr-29 01:01N 53°33' E 009°55'0 0.0
2017-Apr-29 00:30N 53°33' E 009°55'0 0.0
2017-Apr-29 00:00N 53°33' E 009°55'1 1.7
2017-Apr-28 23:30N 53°32' E 009°55'1 1.4
2017-Apr-28 23:00N 53°32' E 009°54'2 4.7
2017-Apr-28 22:30N 53°33' E 009°51'2 3.3
2017-Apr-28 22:01N 53°33' E 009°53'1 2.4
2017-Apr-28 21:30N 53°33' E 009°55'0 0.0
2017-Apr-28 21:00N 53°33' E 009°55'0 0.0
2017-Apr-28 20:31N 53°33' E 009°55'0 0.0
2017-Apr-28 20:00N 53°33' E 009°55'0 0.0
2017-Apr-28 19:31N 53°33' E 009°55'0 0.0
2017-Apr-28 19:01N 53°33' E 009°55'0 0.0
2017-Apr-28 18:31N 53°33' E 009°55'0 0.0
2017-Apr-28 18:00N 53°33' E 009°55'0 0.0
2017-Apr-28 17:31N 53°33' E 009°55'0 0.0
2017-Apr-28 17:01N 53°33' E 009°55'0 0.0
2017-Apr-28 16:30N 53°33' E 009°55'0 0.0
2017-Apr-28 16:00N 53°33' E 009°55'0 0.0
2017-Apr-28 15:31N 53°33' E 009°55'0 0.0
2017-Apr-28 15:01N 53°33' E 009°55'0 0.0
2017-Apr-28 14:00N 53°33' E 009°55'0 0.0
2017-Apr-28 13:31N 53°33' E 009°55'0 0.0
2017-Apr-28 13:01N 53°33' E 009°55'0 0.0
2017-Apr-28 12:31N 53°33' E 009°55'0 0.0
2017-Apr-28 12:01N 53°33' E 009°55'0 0.0
2017-Apr-28 11:31N 53°33' E 009°55'1 1.8
2017-Apr-28 11:01N 53°32' E 009°57'1 1.7
2017-Apr-28 10:31N 53°32' E 009°58'0 0.1
2017-Apr-28 10:01N 53°32' E 009°58'2 3.4
2017-Apr-28 09:31N 53°33' E 009°55'0 0.0
2017-Apr-28 09:01N 53°33' E 009°55'0 0.0
2017-Apr-28 08:31N 53°33' E 009°55'1 1.3
2017-Apr-28 08:01N 53°32' E 009°54'1 1.9
2017-Apr-28 07:30N 53°32' E 009°56'0 0.1
2017-Apr-28 07:00N 53°32' E 009°56'0 0.0
2017-Apr-28 06:31N 53°32' E 009°56'0 0.9
2017-Apr-28 06:01N 53°32' E 009°55'1 1.6
2017-Apr-28 05:31N 53°32' E 009°54'3 5.0
2017-Apr-28 05:01N 53°33' E 009°50'4 8.8
2017-Apr-28 04:30N 53°34' E 009°43'1 2.7
2017-Apr-28 04:00N 53°34' E 009°45'4 7.9
2017-Apr-28 03:31N 53°33' E 009°51'2 4.7
2017-Apr-28 03:01N 53°33' E 009°55'0 0.0
2017-Apr-28 02:31N 53°33' E 009°55'0 0.0
2017-Apr-28 02:01N 53°33' E 009°55'0 0.0
2017-Apr-28 01:31N 53°33' E 009°55'0 0.0
2017-Apr-28 01:01N 53°33' E 009°55'0 0.0
2017-Apr-28 00:30N 53°33' E 009°55'0 0.0
2017-Apr-28 00:00N 53°33' E 009°55'0 0.0
2017-Apr-27 23:31N 53°33' E 009°55'0 0.0
2017-Apr-27 23:00N 53°33' E 009°55'0 0.0
2017-Apr-27 22:31N 53°33' E 009°55'0 0.0
2017-Apr-27 22:01N 53°33' E 009°55'0 0.0
2017-Apr-27 21:31N 53°33' E 009°55'1 2.7
2017-Apr-27 21:01N 53°31' E 009°56'1 2.5
2017-Apr-27 20:30N 53°30' E 009°56'0 0.1
2017-Apr-27 20:00N 53°30' E 009°56'2 4.3
2017-Apr-27 19:30N 53°32' E 009°56'3 6.8
2017-Apr-27 19:01N 53°33' E 009°50'4 7.2
2017-Apr-27 18:31N 53°34' E 009°45'1 1.4
2017-Apr-27 18:01N 53°34' E 009°43'0 0.0
2017-Apr-27 17:31N 53°34' E 009°43'0 0.0
2017-Apr-27 17:01N 53°34' E 009°43'3 6.6
2017-Apr-27 16:31N 53°33' E 009°49'4 7.6
2017-Apr-27 16:00N 53°33' E 009°55'0 0.0
2017-Apr-27 15:30N 53°33' E 009°55'0 0.0
2017-Apr-27 15:01N 53°33' E 009°55'0 0.0
2017-Apr-27 14:01N 53°33' E 009°55'0 0.0
2017-Apr-27 13:30N 53°33' E 009°55'0 0.0
2017-Apr-27 13:01N 53°33' E 009°55'0 0.0
2017-Apr-27 12:31N 53°33' E 009°55'0 0.0
2017-Apr-27 12:00N 53°33' E 009°55'0 0.0
2017-Apr-27 11:31N 53°33' E 009°55'0 0.2
2017-Apr-27 11:00N 53°33' E 009°55'0 0.0
2017-Apr-27 10:31N 53°33' E 009°55'0 0.0
2017-Apr-27 10:01N 53°33' E 009°55'0 0.0
2017-Apr-27 09:31N 53°33' E 009°55'0 0.0
2017-Apr-27 09:00N 53°33' E 009°55'0 0.0
2017-Apr-27 08:31N 53°33' E 009°55'0 0.0
2017-Apr-27 08:01N 53°33' E 009°55'0 0.0
2017-Apr-27 07:30N 53°33' E 009°55'0 0.0
2017-Apr-27 07:00N 53°33' E 009°55'0 0.0
2017-Apr-27 06:31N 53°33' E 009°55'0 0.0
2017-Apr-27 06:00N 53°33' E 009°55'0 0.0
2017-Apr-27 05:30N 53°33' E 009°55'0 0.0
2017-Apr-27 05:01N 53°33' E 009°55'0 0.0
2017-Apr-27 04:30N 53°33' E 009°55'0 0.0
2017-Apr-27 04:00N 53°33' E 009°55'0 0.0
2017-Apr-27 03:31N 53°33' E 009°55'0 0.0
2017-Apr-27 03:01N 53°33' E 009°55'0 0.0
2017-Apr-27 02:30N 53°33' E 009°55'0 0.0
2017-Apr-27 02:01N 53°33' E 009°55'0 0.0
2017-Apr-27 01:31N 53°33' E 009°55'0 0.0
2017-Apr-27 01:01N 53°33' E 009°55'0 0.0
2017-Apr-27 00:31N 53°33' E 009°55'0 0.0
2017-Apr-27 00:00N 53°33' E 009°55'0 0.0
2017-Apr-26 23:31N 53°33' E 009°55'0 0.0
2017-Apr-26 23:01N 53°33' E 009°55'0 0.0
2017-Apr-26 22:30N 53°33' E 009°55'0 0.0
2017-Apr-26 22:00N 53°33' E 009°55'0 0.2
2017-Apr-26 21:31N 53°33' E 009°55'1 2.9
2017-Apr-26 21:00N 53°31' E 009°56'1 1.9
2017-Apr-26 20:31N 53°30' E 009°57'3 5.1
2017-Apr-26 20:01N 53°32' E 009°54'0 0.2
2017-Apr-26 19:31N 53°33' E 009°54'1 0.2
2017-Apr-26 16:14N 53°33' E 009°55'0 0.0
2017-Apr-26 16:01N 53°33' E 009°55'0 0.0
2017-Apr-26 15:30N 53°33' E 009°55'0 0.0
2017-Apr-26 15:01N 53°33' E 009°55'0 0.0
2017-Apr-26 14:30N 53°33' E 009°55'0 0.0
2017-Apr-26 13:31N 53°33' E 009°55'0 0.0
2017-Apr-26 13:00N 53°33' E 009°55'0 0.0
2017-Apr-26 12:30N 53°33' E 009°55'0 0.0
2017-Apr-26 12:00N 53°33' E 009°55'0 0.0
2017-Apr-26 11:30N 53°33' E 009°55'0 0.0
2017-Apr-26 11:00N 53°33' E 009°55'0 0.0
2017-Apr-26 10:30N 53°33' E 009°55'0 0.0
2017-Apr-26 10:01N 53°33' E 009°55'0 0.0
2017-Apr-26 09:30N 53°33' E 009°55'0 0.0
2017-Apr-26 09:00N 53°33' E 009°55'0 0.0
2017-Apr-26 08:31N 53°33' E 009°55'0 0.0
2017-Apr-26 08:00N 53°33' E 009°55'0 0.0
2017-Apr-26 07:31N 53°33' E 009°55'0 0.0
2017-Apr-26 07:01N 53°33' E 009°55'0 0.0
2017-Apr-26 06:30N 53°33' E 009°55'0 0.0
2017-Apr-26 06:01N 53°33' E 009°55'0 0.0
2017-Apr-26 05:31N 53°33' E 009°55'0 0.0
2017-Apr-26 05:00N 53°33' E 009°55'0 0.0
2017-Apr-26 04:31N 53°33' E 009°55'0 0.0
2017-Apr-26 04:00N 53°33' E 009°55'0 0.0
2017-Apr-26 03:30N 53°33' E 009°55'0 0.0
2017-Apr-26 03:00N 53°33' E 009°55'0 0.0
2017-Apr-26 02:30N 53°33' E 009°55'0 0.0
2017-Apr-26 02:00N 53°33' E 009°55'0 0.0
2017-Apr-26 01:31N 53°33' E 009°55'0 0.0
2017-Apr-26 01:01N 53°33' E 009°55'0 0.0
2017-Apr-26 00:30N 53°33' E 009°55'0 0.0
2017-Apr-26 00:00N 53°33' E 009°55'0 0.0
2017-Apr-25 23:31N 53°33' E 009°55'0 0.0
2017-Apr-25 23:00N 53°33' E 009°55'0 0.0
2017-Apr-25 22:30N 53°33' E 009°55'0 0.0
2017-Apr-25 22:00N 53°33' E 009°55'0 0.0
2017-Apr-25 21:30N 53°33' E 009°55'0 0.0
2017-Apr-25 21:00N 53°33' E 009°55'0 0.0
2017-Apr-25 20:31N 53°33' E 009°55'0 0.0
2017-Apr-25 20:00N 53°33' E 009°55'0 0.0
2017-Apr-25 19:30N 53°33' E 009°55'0 0.0
2017-Apr-25 19:00N 53°33' E 009°55'0 0.0
2017-Apr-25 18:30N 53°33' E 009°55'0 0.0
2017-Apr-25 18:00N 53°33' E 009°55'0 0.0
2017-Apr-25 17:30N 53°33' E 009°55'0 0.0
2017-Apr-25 17:00N 53°33' E 009°55'0 0.0
2017-Apr-25 16:31N 53°33' E 009°55'0 0.0
2017-Apr-25 16:01N 53°33' E 009°55'0 0.0
2017-Apr-25 15:31N 53°33' E 009°55'0 0.0
2017-Apr-25 15:00N 53°33' E 009°55'0 0.0
2017-Apr-25 14:00N 53°33' E 009°55'0 0.0
2017-Apr-25 13:30N 53°33' E 009°55'0 0.0
2017-Apr-25 13:01N 53°33' E 009°55'0 0.0
2017-Apr-25 12:31N 53°33' E 009°55'1 2.7
2017-Apr-25 12:01N 53°33' E 009°58'1 1.7
2017-Apr-25 11:30N 53°32' E 009°59'3 5.5
2017-Apr-25 11:00N 53°32' E 009°54'0 0.1
2017-Apr-25 10:30N 53°32' E 009°54'1 1.1
2017-Apr-25 10:01N 53°33' E 009°55'0 0.0
2017-Apr-25 09:31N 53°33' E 009°55'0 0.0
2017-Apr-25 09:00N 53°33' E 009°55'0 0.0
2017-Apr-25 08:31N 53°33' E 009°55'0 0.0
2017-Apr-25 08:01N 53°33' E 009°55'0 0.0
2017-Apr-25 07:30N 53°33' E 009°55'0 0.0
2017-Apr-25 07:01N 53°33' E 009°55'0 0.2
2017-Apr-25 06:31N 53°33' E 009°55'0 0.0
2017-Apr-25 06:00N 53°33' E 009°55'0 0.0
2017-Apr-25 05:30N 53°33' E 009°55'0 0.0
2017-Apr-25 05:01N 53°33' E 009°55'0 0.0
2017-Apr-25 04:31N 53°33' E 009°55'0 0.0
2017-Apr-25 04:01N 53°33' E 009°55'0 0.0
2017-Apr-25 03:30N 53°33' E 009°55'0 0.0
2017-Apr-25 03:00N 53°33' E 009°55'0 0.0
2017-Apr-25 02:31N 53°33' E 009°55'0 0.0
2017-Apr-25 02:00N 53°33' E 009°55'0 0.0
2017-Apr-25 01:31N 53°33' E 009°55'0 0.0
2017-Apr-25 01:01N 53°33' E 009°55'0 0.0
2017-Apr-25 00:31N 53°33' E 009°55'0 0.0
2017-Apr-25 00:00N 53°33' E 009°55'0 0.0
2017-Apr-24 23:30N 53°33' E 009°55'0 0.0
2017-Apr-24 23:00N 53°33' E 009°55'0 0.0
2017-Apr-24 22:30N 53°33' E 009°55'0 0.0
2017-Apr-24 22:00N 53°33' E 009°55'0 0.0
2017-Apr-24 21:30N 53°33' E 009°55'0 0.0
2017-Apr-24 21:00N 53°33' E 009°55'0 0.0
2017-Apr-24 20:30N 53°33' E 009°55'0 0.0
2017-Apr-24 20:01N 53°33' E 009°55'0 0.0
2017-Apr-24 19:30N 53°33' E 009°55'0 0.0
2017-Apr-24 19:01N 53°33' E 009°55'0 0.0
2017-Apr-24 18:31N 53°33' E 009°55'0 0.0
2017-Apr-24 18:00N 53°33' E 009°55'0 0.0
2017-Apr-24 17:30N 53°33' E 009°55'0 0.0
2017-Apr-24 17:00N 53°33' E 009°55'0 0.0
2017-Apr-24 16:30N 53°33' E 009°55'0 0.0
2017-Apr-24 16:01N 53°33' E 009°55'3 5.4
2017-Apr-24 15:30N 53°33' E 009°51'5 9.6
2017-Apr-24 15:01N 53°34' E 009°43'5 9.6
2017-Apr-24 14:30N 53°36' E 009°36'5 4.5
2017-Apr-24 13:30N 53°39' E 009°31'1 2.2
2017-Apr-24 13:01N 53°40' E 009°30'1 2.4
2017-Apr-24 12:30N 53°39' E 009°31'0 0.3
2017-Apr-24 12:00N 53°39' E 009°31'510.3
2017-Apr-24 11:30N 53°35' E 009°37'5 9.9
2017-Apr-24 11:00N 53°34' E 009°45'4 8.1
2017-Apr-24 10:30N 53°33' E 009°51'2 5.0
2017-Apr-24 10:00N 53°33' E 009°55'0 0.0
2017-Apr-24 09:30N 53°33' E 009°55'0 0.0
2017-Apr-24 09:01N 53°33' E 009°55'0 0.0
2017-Apr-24 08:31N 53°33' E 009°55'0 0.0
2017-Apr-24 08:01N 53°33' E 009°55'0 0.0
2017-Apr-24 07:31N 53°33' E 009°55'0 0.0
2017-Apr-24 07:01N 53°33' E 009°55'0 0.0
2017-Apr-24 06:31N 53°33' E 009°55'0 0.0
2017-Apr-24 06:00N 53°33' E 009°55'0 0.0
2017-Apr-24 05:30N 53°33' E 009°55'0 0.0
2017-Apr-24 05:01N 53°33' E 009°55'0 0.0
2017-Apr-24 04:31N 53°33' E 009°55'0 0.0
2017-Apr-24 04:00N 53°33' E 009°55'0 0.0
2017-Apr-24 03:30N 53°33' E 009°55'0 0.0
2017-Apr-24 03:00N 53°33' E 009°55'0 0.0
2017-Apr-24 02:30N 53°33' E 009°55'0 0.0
2017-Apr-24 02:01N 53°33' E 009°55'0 0.0
2017-Apr-24 01:31N 53°33' E 009°55'0 0.0
2017-Apr-24 01:00N 53°33' E 009°55'0 0.0
2017-Apr-24 00:30N 53°33' E 009°55'0 0.0
2017-Apr-24 00:00N 53°33' E 009°55'0 0.0
2017-Apr-23 23:31N 53°33' E 009°55'0 0.0
2017-Apr-23 23:00N 53°33' E 009°55'0 0.0
2017-Apr-23 22:30N 53°33' E 009°55'0 0.0
2017-Apr-23 22:00N 53°33' E 009°55'0 0.0
2017-Apr-23 21:30N 53°33' E 009°55'0 0.0
2017-Apr-23 21:01N 53°33' E 009°55'0 0.0
2017-Apr-23 20:30N 53°33' E 009°55'0 0.0
2017-Apr-23 20:01N 53°33' E 009°55'0 0.0
2017-Apr-23 19:31N 53°33' E 009°55'0 0.0
2017-Apr-23 19:00N 53°33' E 009°55'0 0.0
2017-Apr-23 18:30N 53°33' E 009°55'0 0.0
2017-Apr-23 18:00N 53°33' E 009°55'0 0.0
2017-Apr-23 17:31N 53°33' E 009°55'0 0.0
2017-Apr-23 17:00N 53°33' E 009°55'0 0.0
2017-Apr-23 16:30N 53°33' E 009°55'0 0.0
2017-Apr-23 16:01N 53°33' E 009°55'0 0.0
2017-Apr-23 15:31N 53°33' E 009°55'0 0.0
2017-Apr-23 15:01N 53°33' E 009°55'0 0.0
2017-Apr-23 14:00N 53°33' E 009°55'0 0.0
2017-Apr-23 13:30N 53°33' E 009°55'1 2.3
2017-Apr-23 13:01N 53°33' E 009°57'2 3.1
2017-Apr-23 12:30N 53°32' E 009°60'2 4.2
2017-Apr-23 12:01N 53°32' E 009°56'1 1.0
2017-Apr-23 11:31N 53°33' E 009°55'0 0.0
2017-Apr-23 11:00N 53°33' E 009°55'0 0.0
2017-Apr-23 10:30N 53°33' E 009°55'0 0.0
2017-Apr-23 10:01N 53°33' E 009°55'0 0.0
2017-Apr-23 09:30N 53°33' E 009°55'0 0.0
2017-Apr-23 09:00N 53°33' E 009°55'0 0.0
2017-Apr-23 08:31N 53°33' E 009°55'0 0.0
2017-Apr-23 08:00N 53°33' E 009°55'0 0.0
2017-Apr-23 07:30N 53°33' E 009°55'0 0.0
2017-Apr-23 07:00N 53°33' E 009°55'0 0.0
2017-Apr-23 06:30N 53°33' E 009°55'0 0.0
2017-Apr-23 06:00N 53°33' E 009°55'0 0.0
2017-Apr-23 05:30N 53°33' E 009°55'0 0.0
2017-Apr-23 05:00N 53°33' E 009°55'1 1.8
2017-Apr-23 04:31N 53°32' E 009°54'1 1.8
2017-Apr-23 04:00N 53°32' E 009°55'1 1.7
2017-Apr-23 03:30N 53°33' E 009°55'0 0.0
2017-Apr-23 03:00N 53°33' E 009°55'0 0.0
2017-Apr-23 02:30N 53°33' E 009°55'0 0.0
2017-Apr-23 02:00N 53°33' E 009°55'0 1.0
2017-Apr-23 01:30N 53°32' E 009°55'0 1.0
2017-Apr-23 01:00N 53°33' E 009°55'0 0.0
2017-Apr-23 00:30N 53°33' E 009°55'0 0.0
2017-Apr-23 00:00N 53°33' E 009°55'0 0.0
2017-Apr-22 23:30N 53°33' E 009°55'0 0.0
2017-Apr-22 23:00N 53°33' E 009°55'0 0.0
2017-Apr-22 22:30N 53°33' E 009°55'0 0.0
2017-Apr-22 22:00N 53°33' E 009°55'0 0.0
2017-Apr-22 21:30N 53°33' E 009°55'0 0.0
2017-Apr-22 21:00N 53°33' E 009°55'0 0.0
2017-Apr-22 20:30N 53°33' E 009°55'0 0.0
2017-Apr-22 20:00N 53°33' E 009°55'0 0.0
2017-Apr-22 19:30N 53°33' E 009°55'0 0.0
2017-Apr-22 19:00N 53°33' E 009°55'0 0.0
2017-Apr-22 18:30N 53°33' E 009°55'0 0.0
2017-Apr-22 18:00N 53°33' E 009°55'0 0.0
2017-Apr-22 17:30N 53°33' E 009°55'0 0.0
2017-Apr-22 17:00N 53°33' E 009°55'0 0.0
2017-Apr-22 16:30N 53°33' E 009°55'0 0.0
2017-Apr-22 16:00N 53°33' E 009°55'0 0.0
2017-Apr-22 15:30N 53°33' E 009°55'0 0.0
2017-Apr-22 15:00N 53°33' E 009°55'0 0.0
2017-Apr-22 14:30N 53°33' E 009°55'1 1.3
2017-Apr-22 13:30N 53°32' E 009°53'1 2.4
2017-Apr-22 13:00N 53°32' E 009°55'0 0.1
2017-Apr-22 12:30N 53°32' E 009°55'0 0.3
2017-Apr-22 12:00N 53°32' E 009°55'0 0.0
2017-Apr-22 11:30N 53°32' E 009°55'0 0.5
2017-Apr-22 11:01N 53°32' E 009°55'1 2.6
2017-Apr-22 10:31N 53°32' E 009°53'0 0.7
2017-Apr-22 10:00N 53°33' E 009°53'1 2.9
2017-Apr-22 09:30N 53°33' E 009°55'0 0.0
2017-Apr-22 09:00N 53°33' E 009°55'0 0.0
2017-Apr-22 08:30N 53°33' E 009°55'0 0.0
2017-Apr-22 08:00N 53°33' E 009°55'0 0.0
2017-Apr-22 07:30N 53°33' E 009°55'0 0.0
2017-Apr-22 07:00N 53°33' E 009°55'0 0.0
2017-Apr-22 06:30N 53°33' E 009°55'0 0.0
2017-Apr-22 06:00N 53°33' E 009°55'0 0.0
2017-Apr-22 05:30N 53°33' E 009°55'0 0.0
2017-Apr-22 05:00N 53°33' E 009°55'0 0.0
2017-Apr-22 04:30N 53°33' E 009°55'0 0.0
2017-Apr-22 04:00N 53°33' E 009°55'1 1.3
2017-Apr-22 03:30N 53°32' E 009°54'0 0.0
2017-Apr-22 03:00N 53°32' E 009°54'1 1.2
2017-Apr-22 02:30N 53°33' E 009°55'0 0.0
2017-Apr-22 02:01N 53°33' E 009°55'0 0.0
2017-Apr-22 01:30N 53°33' E 009°55'0 0.0
2017-Apr-22 01:00N 53°33' E 009°55'0 0.0
2017-Apr-22 00:30N 53°33' E 009°55'0 0.0
2017-Apr-22 00:00N 53°33' E 009°55'0 0.0
2017-Apr-21 23:30N 53°33' E 009°55'0 0.0
2017-Apr-21 23:00N 53°33' E 009°55'0 0.0
2017-Apr-21 22:30N 53°33' E 009°55'0 0.0
2017-Apr-21 22:00N 53°33' E 009°55'0 0.0
2017-Apr-21 21:30N 53°33' E 009°55'0 0.0
2017-Apr-21 21:00N 53°33' E 009°55'0 0.0
2017-Apr-21 20:30N 53°33' E 009°55'0 0.0
2017-Apr-21 20:00N 53°33' E 009°55'0 0.0
2017-Apr-21 19:30N 53°33' E 009°55'0 0.0
2017-Apr-21 19:00N 53°33' E 009°55'0 0.0
2017-Apr-21 18:30N 53°33' E 009°55'0 0.0
2017-Apr-21 18:00N 53°33' E 009°55'0 0.6
2017-Apr-21 17:30N 53°32' E 009°55'1 2.2
2017-Apr-21 17:01N 53°32' E 009°57'0 0.4
2017-Apr-21 16:31N 53°32' E 009°57'1 2.0
2017-Apr-21 16:00N 53°33' E 009°55'0 0.0
2017-Apr-21 15:30N 53°33' E 009°55'0 0.0
2017-Apr-21 15:00N 53°33' E 009°55'0 0.0
2017-Apr-21 14:30N 53°33' E 009°55'0 0.0
2017-Apr-21 13:30N 53°33' E 009°55'0 0.0
2017-Apr-21 13:00N 53°33' E 009°55'1 2.0
2017-Apr-21 12:30N 53°32' E 009°57'1 2.1
2017-Apr-21 12:00N 53°32' E 009°55'0 0.4
2017-Apr-21 11:30N 53°33' E 009°55'0 0.0
2017-Apr-21 11:00N 53°33' E 009°55'0 0.0
2017-Apr-21 10:30N 53°33' E 009°55'0 0.0
2017-Apr-21 10:00N 53°33' E 009°55'0 0.0
2017-Apr-21 09:30N 53°33' E 009°55'0 0.0
2017-Apr-21 09:00N 53°33' E 009°55'0 0.0
2017-Apr-21 08:30N 53°33' E 009°55'0 0.0
2017-Apr-21 08:00N 53°33' E 009°55'0 0.0
2017-Apr-21 07:30N 53°33' E 009°55'0 0.0
2017-Apr-21 07:00N 53°33' E 009°55'0 0.0
2017-Apr-21 06:30N 53°33' E 009°55'0 0.0
2017-Apr-21 06:00N 53°33' E 009°55'0 0.0
2017-Apr-21 05:30N 53°33' E 009°55'0 0.0
2017-Apr-21 05:00N 53°33' E 009°55'0 0.0
2017-Apr-21 04:30N 53°33' E 009°55'0 0.0
2017-Apr-21 04:00N 53°33' E 009°55'0 0.5
2017-Apr-21 03:30N 53°32' E 009°55'0 0.4
2017-Apr-21 03:00N 53°33' E 009°55'0 0.4
2017-Apr-21 02:30N 53°33' E 009°55'0 0.0
2017-Apr-21 02:00N 53°33' E 009°55'0 0.0
2017-Apr-21 01:30N 53°33' E 009°55'0 0.0
2017-Apr-21 01:00N 53°33' E 009°55'0 0.0
2017-Apr-21 00:30N 53°33' E 009°55'0 0.0
2017-Apr-21 00:00N 53°33' E 009°55'0 0.0
2017-Apr-20 23:30N 53°33' E 009°55'0 0.0
2017-Apr-20 23:00N 53°33' E 009°55'0 0.0
2017-Apr-20 22:30N 53°33' E 009°55'3 6.4
2017-Apr-20 22:00N 53°30' E 009°57'0 0.6
2017-Apr-20 21:30N 53°29' E 009°57'1 1.6
2017-Apr-20 21:00N 53°30' E 009°57'1 2.1
2017-Apr-20 20:30N 53°31' E 009°56'2 3.3
2017-Apr-20 20:00N 53°33' E 009°55'0 0.0
2017-Apr-20 19:30N 53°33' E 009°55'0 0.0
2017-Apr-20 19:00N 53°33' E 009°55'0 0.0
2017-Apr-20 17:52N 53°33' E 009°55'0 0.0
2017-Apr-20 17:30N 53°33' E 009°55'0 0.0
2017-Apr-20 17:00N 53°33' E 009°55'0 0.0
2017-Apr-20 16:30N 53°33' E 009°55'0 0.0
2017-Apr-20 16:00N 53°33' E 009°55'0 0.0
2017-Apr-20 15:30N 53°33' E 009°55'0 0.0
2017-Apr-20 15:00N 53°33' E 009°55'0 0.0
2017-Apr-20 14:00N 53°33' E 009°55'0 0.0
2017-Apr-20 13:30N 53°33' E 009°55'0 0.0
2017-Apr-20 13:00N 53°33' E 009°55'0 0.0
2017-Apr-20 12:30N 53°33' E 009°55'0 0.0
2017-Apr-20 12:01N 53°33' E 009°55'0 0.0
2017-Apr-20 11:30N 53°33' E 009°55'0 0.0
2017-Apr-20 11:00N 53°33' E 009°55'0 0.0
2017-Apr-20 10:30N 53°33' E 009°55'0 0.0
2017-Apr-20 10:00N 53°33' E 009°55'0 0.0
2017-Apr-20 09:30N 53°33' E 009°55'2 3.3
2017-Apr-20 09:00N 53°31' E 009°56'1 1.1
2017-Apr-20 08:30N 53°32' E 009°56'1 1.2
2017-Apr-20 08:00N 53°32' E 009°56'3 5.1
2017-Apr-20 07:30N 53°33' E 009°52'2 4.0
2017-Apr-20 07:00N 53°33' E 009°55'0 0.0
2017-Apr-20 06:30N 53°33' E 009°55'0 0.0
2017-Apr-20 06:00N 53°33' E 009°55'0 0.0
2017-Apr-20 05:30N 53°33' E 009°55'0 0.0
2017-Apr-20 05:00N 53°33' E 009°55'0 0.0
2017-Apr-20 04:30N 53°33' E 009°55'0 0.0
2017-Apr-20 04:00N 53°33' E 009°55'0 0.0
2017-Apr-20 03:30N 53°33' E 009°55'0 0.0
2017-Apr-20 03:00N 53°33' E 009°55'0 0.0
2017-Apr-20 02:30N 53°33' E 009°55'0 0.0
2017-Apr-20 02:00N 53°33' E 009°55'0 0.0
2017-Apr-20 01:30N 53°33' E 009°55'0 0.0
2017-Apr-20 01:00N 53°33' E 009°55'0 0.0
2017-Apr-20 00:31N 53°33' E 009°55'0 0.0
2017-Apr-20 00:00N 53°33' E 009°55'0 0.0
2017-Apr-19 23:31N 53°33' E 009°55'0 0.0
2017-Apr-19 23:00N 53°33' E 009°55'0 0.0
2017-Apr-19 22:31N 53°33' E 009°55'1 2.4
2017-Apr-19 22:00N 53°32' E 009°56'1 3.0
2017-Apr-19 21:30N 53°30' E 009°58'0 1.0
2017-Apr-19 21:00N 53°31' E 009°57'2 4.4
2017-Apr-19 20:30N 53°32' E 009°55'0 0.6
2017-Apr-19 20:00N 53°33' E 009°55'0 0.0
2017-Apr-19 19:30N 53°33' E 009°55'0 0.0
2017-Apr-19 19:00N 53°33' E 009°55'0 0.0
2017-Apr-19 18:30N 53°33' E 009°55'0 0.0
2017-Apr-19 18:00N 53°33' E 009°55'0 0.0
2017-Apr-19 17:30N 53°33' E 009°55'0 0.0
2017-Apr-19 17:00N 53°33' E 009°55'0 0.0
2017-Apr-19 16:30N 53°33' E 009°55'0 0.0
2017-Apr-19 16:00N 53°33' E 009°55'0 0.0
2017-Apr-19 15:30N 53°33' E 009°55'0 0.0
2017-Apr-19 15:00N 53°33' E 009°55'0 0.0
2017-Apr-19 14:30N 53°33' E 009°55'0 0.0
2017-Apr-19 13:30N 53°33' E 009°55'0 0.0
2017-Apr-19 13:00N 53°33' E 009°55'0 0.0
2017-Apr-19 12:30N 53°33' E 009°55'0 0.0
2017-Apr-19 12:00N 53°33' E 009°55'0 0.0
2017-Apr-19 11:30N 53°33' E 009°55'1 2.0
2017-Apr-19 11:00N 53°32' E 009°54'1 2.4
2017-Apr-19 10:30N 53°32' E 009°55'0 0.1
2017-Apr-19 10:00N 53°32' E 009°55'0 0.0
2017-Apr-19 09:30N 53°32' E 009°55'0 0.0
2017-Apr-19 09:00N 53°32' E 009°55'0 0.6
2017-Apr-19 08:31N 53°32' E 009°55'1 1.6
2017-Apr-19 08:01N 53°33' E 009°54'2 4.2
2017-Apr-19 07:30N 53°33' E 009°51'  

Dump ship's entire track history